logo
Search for airport 
image banner adimage banner adimage banner ad
image banner ad

YBOU - Boulia

Located in Boulia, Australia

ICAO - YBOU, IATA - BQL

Data provided by Airmate  

General information

Coordinates: S22°54'48" E139°53'59"
Elevation is 542 feet MSL.
 
View others Airports in Queensland

Operational data

Special qualification required
Current time UTC:
Current local time:
Weather at : - ( 0 km )
METAR: UWOR 250632Z 26008G15MPS 9999 SCT046 22/08 Q1002 R25/CLRD65 NOSIG RMK QFE728/0971
View NOTAMs / SUP AIP / TFR affecting this airport [VIEW]
Communications frequencies: [VIEW]

Runways:

RWY identifierQFULength (ft)Width (ft)SurfaceLDA (ft)
14149°590998ASP
32329°590998ASP

Airport contact information

Address: Boulia Australia

Satellite view of YBOU